Duluth, Georgia
Current Conditions -  °F | °C
As of 10:45 AM on Wednesday 28 Jan 2015 (Local Time) from KLZU Reporting Station
Clear Clear  
Wind Chill: 41°   Ceiling: Unl
Heat Index: 41°   Visibility: 10mi
Dew Point: 19°   Wind: 3mph
Humidity: 42%   Direction: 310°NW
Pressure: 30.27"   Gusts: NA
Location:  34°N, 84.14°W
Report Text: KLZU 281545Z 31003KT 10SM CLR 05/M07 A3027 RMK ATIS C RWY 25 BK
Loading
Personal Weather Stations






























Interactive Weather Map New forecast layout! Learn more

10-Day Weather Forecast

Advertisements
Track Severe Weather on mobile